Terminal Aerodrome Forecast
Issued by NWS Twin Cities, MN

Home | Current Version | Previous Version | Text Only | Print | Product List | Glossary On
Versions: 1 2 3 4 5 6 7 8 9 10 11 12 13 14 15 16 17 18 19 20 21 22 23 24 25 26 27 28 29 30 31
368
FTUS43 KMPX 251733
TAFMSP
TAF
KMSP 251733Z 2518/2624 25015G24KT P6SM OVC030
     FM260000 27012KT P6SM BKN035
     FM261300 29015G25KT P6SM SKC
     FM261600 29020G33KT P6SM SCT050=

USA.gov is the U.S. government's official web portal to all federal, state and local government web resources and services.